createdAt,value
2018-09-10T00:01:24.533Z,58.70
2018-09-10T00:03:57.515Z,58.78
2018-09-10T00:06:30.111Z,58.45
2018-09-10T00:09:03.549Z,58.43
2018-09-10T00:11:36.868Z,58.37
2018-09-10T00:14:10.144Z,58.24
2018-09-10T00:16:42.692Z,57.93
2018-09-10T00:19:15.596Z,57.63
2018-09-10T00:21:48.244Z,57.40
2018-09-10T00:24:20.756Z,57.06
2018-09-10T00:26:53.568Z,56.72
2018-09-10T00:29:26.199Z,56.43
2018-09-10T00:31:58.700Z,56.42
2018-09-10T00:34:33.736Z,56.61
2018-09-10T00:37:07.979Z,56.88
2018-09-10T00:39:40.528Z,57.16
2018-09-10T00:42:13.347Z,57.30
2018-09-10T00:44:46.372Z,57.24
2018-09-10T00:47:18.853Z,57.19
2018-09-10T00:49:52.679Z,57.14
2018-09-10T00:52:25.358Z,57.16
2018-09-10T00:54:58.683Z,57.21
2018-09-10T00:57:32.664Z,57.20
2018-09-10T01:00:07.635Z,57.18
2018-09-10T01:02:42.277Z,57.23
2018-09-10T01:05:16.840Z,57.36
2018-09-10T01:07:49.340Z,57.46
2018-09-10T01:10:21.874Z,57.44
2018-09-10T01:12:55.699Z,57.38
2018-09-10T01:15:28.328Z,57.26
2018-09-10T01:18:01.139Z,57.26
2018-09-10T01:20:35.111Z,57.11
2018-09-10T01:23:07.704Z,56.91
2018-09-10T01:25:40.476Z,56.97
2018-09-10T01:28:13.449Z,56.84
2018-09-10T01:30:45.972Z,56.88
2018-09-10T01:33:24.392Z,56.80
2018-09-10T01:35:56.917Z,56.99
2018-09-10T01:38:29.536Z,57.23
2018-09-10T01:41:02.063Z,57.55
2018-09-10T01:43:36.459Z,57.98
2018-09-10T01:46:09.908Z,58.18
2018-09-10T01:48:43.636Z,58.34
2018-09-10T01:51:17.135Z,58.68
2018-09-10T01:53:49.929Z,58.87
2018-09-10T01:56:22.476Z,58.86
2018-09-10T01:58:55.276Z,58.66
2018-09-10T02:01:27.815Z,58.92
2018-09-10T02:04:00.645Z,59.05
2018-09-10T02:06:34.605Z,59.21
2018-09-10T02:09:09.395Z,58.95
2018-09-10T02:11:42.064Z,59.56
2018-09-10T02:14:14.988Z,60.25
2018-09-10T02:16:47.574Z,60.62
2018-09-10T02:19:21.292Z,61.06
2018-09-10T02:21:54.236Z,61.76
2018-09-10T02:24:26.777Z,61.99
2018-09-10T02:26:59.281Z,62.57
2018-09-10T02:29:32.203Z,63.00
2018-09-10T02:32:05.361Z,63.03
2018-09-10T02:34:37.792Z,62.54
2018-09-10T02:37:11.551Z,62.27
2018-09-10T02:39:44.642Z,62.40
2018-09-10T02:42:17.484Z,62.33
2018-09-10T02:44:50.268Z,62.24
2018-09-10T02:47:22.900Z,62.44
2018-09-10T02:49:55.610Z,62.48
2018-09-10T02:52:29.544Z,62.24
2018-09-10T02:55:02.015Z,62.05
2018-09-10T02:57:34.579Z,62.04
2018-09-10T03:00:14.177Z,62.14
2018-09-10T03:02:46.928Z,62.10
2018-09-10T03:05:19.557Z,62.04
2018-09-10T03:07:52.475Z,62.10
2018-09-10T03:10:24.844Z,62.02
2018-09-10T03:12:57.419Z,61.92
2018-09-10T03:15:31.260Z,61.56
2018-09-10T03:18:03.936Z,61.43
2018-09-10T03:20:36.366Z,61.33
2018-09-10T03:23:10.532Z,61.24
2018-09-10T03:25:43.181Z,61.15
2018-09-10T03:28:15.773Z,61.07
2018-09-10T03:30:51.785Z,60.87
2018-09-10T03:33:24.441Z,60.96
2018-09-10T03:35:56.829Z,61.05
2018-09-10T03:38:29.820Z,61.32
2018-09-10T03:41:02.736Z,61.47
2018-09-10T03:43:35.323Z,61.87
2018-09-10T03:46:08.041Z,62.26
2018-09-10T03:48:40.692Z,62.30
2018-09-10T03:51:13.170Z,62.27
2018-09-10T03:53:47.302Z,62.41
2018-09-10T03:56:19.809Z,62.65
2018-09-10T03:58:52.553Z,63.06
2018-09-10T04:01:25.425Z,63.67
2018-09-10T04:03:58.033Z,64.51
2018-09-10T04:06:30.604Z,65.10
2018-09-10T04:09:06.238Z,65.84
2018-09-10T04:11:38.801Z,66.63
2018-09-10T04:14:13.572Z,67.30
2018-09-10T04:16:46.415Z,67.41
2018-09-10T04:19:19.540Z,67.54
2018-09-10T04:21:52.192Z,67.53
2018-09-10T04:24:26.328Z,67.60
2018-09-10T04:26:58.986Z,67.45
2018-09-10T04:29:31.757Z,67.38
2018-09-10T04:32:05.941Z,67.43
2018-09-10T04:34:38.389Z,67.41
2018-09-10T04:37:11.258Z,67.34
2018-09-10T04:39:46.417Z,67.33
2018-09-10T04:42:19.172Z,67.33
2018-09-10T04:44:51.616Z,67.31
2018-09-10T04:47:28.456Z,67.42
2018-09-10T04:50:01.536Z,67.57
2018-09-10T04:52:34.097Z,67.59
2018-09-10T04:55:07.005Z,67.61
2018-09-10T04:57:39.641Z,67.76
2018-09-10T05:00:13.852Z,68.14
2018-09-10T05:02:51.034Z,68.66
2018-09-10T05:05:24.257Z,68.75
2018-09-10T05:07:57.027Z,68.85
2018-09-10T05:10:30.404Z,69.35
2018-09-10T05:13:03.152Z,69.58
2018-09-10T05:15:35.686Z,70.00
2018-09-10T05:18:08.596Z,70.44
2018-09-10T05:20:42.925Z,70.84
2018-09-10T05:23:18.063Z,71.10
2018-09-10T05:25:54.042Z,70.91
2018-09-10T05:28:26.680Z,70.99
2018-09-10T05:31:02.155Z,70.97
2018-09-10T05:33:34.629Z,71.17
2018-09-10T05:36:07.530Z,71.41
2018-09-10T05:38:40.121Z,72.09
2018-09-10T05:41:12.705Z,72.62
2018-09-10T05:43:47.364Z,72.49
2018-09-10T05:46:20.141Z,72.80
2018-09-10T05:48:52.700Z,72.90
2018-09-10T05:51:25.349Z,72.64
2018-09-10T05:53:59.094Z,72.37
2018-09-10T05:56:31.654Z,72.03
2018-09-10T05:59:04.419Z,71.83
2018-09-10T06:01:37.913Z,71.83
2018-09-10T06:04:11.436Z,71.46
2018-09-10T06:06:45.492Z,71.21
2018-09-10T06:09:18.692Z,71.28
2018-09-10T06:11:52.245Z,71.43
2018-09-10T06:14:28.465Z,71.33
2018-09-10T06:17:02.081Z,71.38
2018-09-10T06:19:34.925Z,71.46
2018-09-10T06:22:08.475Z,71.33
2018-09-10T06:24:41.141Z,71.44
2018-09-10T06:27:15.260Z,71.53
2018-09-10T06:29:48.697Z,71.60
2018-09-10T06:32:23.306Z,71.71
2018-09-10T06:34:55.930Z,71.88
2018-09-10T06:37:29.214Z,71.94
2018-09-10T06:40:05.988Z,72.17
2018-09-10T06:42:40.214Z,72.35
2018-09-10T06:45:15.822Z,72.47
2018-09-10T06:47:48.480Z,72.71
2018-09-10T06:50:21.136Z,72.80
2018-09-10T06:52:53.621Z,72.73
2018-09-10T06:55:26.669Z,72.60
2018-09-10T06:57:59.244Z,72.49
2018-09-10T07:00:31.789Z,72.37
2018-09-10T07:03:05.152Z,72.11
2018-09-10T07:05:37.756Z,71.93
2018-09-10T07:08:10.381Z,71.81
2018-09-10T07:10:43.742Z,71.65
2018-09-10T07:13:16.938Z,71.44
2018-09-10T07:15:49.536Z,71.51
2018-09-10T07:18:25.037Z,71.26
2018-09-10T07:20:57.572Z,71.22
2018-09-10T07:23:30.085Z,71.34
2018-09-10T07:26:04.948Z,71.13
2018-09-10T07:28:38.048Z,70.57
2018-09-10T07:31:10.765Z,70.42
2018-09-10T07:33:43.716Z,69.90
2018-09-10T07:36:20.976Z,69.42
2018-09-10T07:38:55.327Z,69.01
2018-09-10T07:41:29.412Z,68.77
2018-09-10T07:44:04.105Z,68.78
2018-09-10T07:46:38.289Z,68.93
2018-09-10T07:49:11.885Z,69.00
2018-09-10T07:51:45.256Z,68.59
2018-09-10T07:54:18.489Z,68.29
2018-09-10T07:56:53.492Z,68.23
2018-09-10T07:59:29.190Z,67.09
2018-09-10T08:02:01.761Z,66.76
2018-09-10T08:04:40.380Z,66.31
2018-09-10T08:07:14.123Z,65.71
2018-09-10T08:09:46.860Z,65.80
2018-09-10T08:12:19.422Z,66.02
2018-09-10T08:14:53.894Z,66.32
2018-09-10T08:17:27.802Z,66.57
2018-09-10T08:20:01.789Z,66.66
2018-09-10T08:22:35.616Z,67.10
2018-09-10T08:25:10.636Z,67.51
2018-09-10T08:27:43.076Z,67.74
2018-09-10T08:30:16.318Z,68.16
2018-09-10T08:32:50.062Z,68.65
2018-09-10T08:35:25.357Z,69.10
2018-09-10T08:37:58.835Z,69.01
2018-09-10T08:40:33.432Z,69.01
2018-09-10T08:43:07.652Z,69.44
2018-09-10T08:45:40.747Z,69.24
2018-09-10T08:48:16.337Z,67.78
2018-09-10T08:50:50.624Z,66.21
2018-09-10T08:53:24.195Z,63.90
2018-09-10T08:55:59.656Z,62.07
2018-09-10T08:58:31.849Z,60.68
2018-09-10T09:01:05.406Z,61.88
2018-09-10T09:03:40.090Z,62.83
2018-09-10T09:06:12.730Z,63.26
2018-09-10T09:08:46.614Z,62.95
2018-09-10T09:11:19.317Z,62.33
2018-09-10T09:13:52.026Z,60.26
2018-09-10T09:16:25.665Z,59.15
2018-09-10T09:19:02.208Z,59.41
2018-09-10T09:21:36.089Z,59.52
2018-09-10T09:24:13.421Z,59.07
2018-09-10T09:26:47.789Z,59.25
2018-09-10T09:29:23.680Z,59.85
2018-09-10T09:31:59.953Z,59.86
2018-09-10T09:34:38.005Z,60.19
2018-09-10T09:37:16.433Z,60.66
2018-09-10T09:39:54.641Z,60.96
2018-09-10T09:42:33.697Z,60.16
2018-09-10T09:45:12.944Z,58.64
2018-09-10T09:47:49.990Z,55.78
2018-09-10T09:50:23.584Z,55.03
2018-09-10T09:52:59.022Z,53.45
2018-09-10T09:55:32.027Z,54.59
2018-09-10T09:58:07.184Z,55.42
2018-09-10T10:00:46.301Z,53.61
2018-09-10T10:03:25.900Z,52.49
2018-09-10T10:05:58.494Z,52.18
2018-09-10T10:08:32.335Z,51.51
2018-09-10T10:11:08.139Z,52.15
2018-09-10T10:13:42.197Z,52.35
2018-09-10T10:16:15.421Z,51.22
2018-09-10T10:18:49.648Z,51.69
2018-09-10T10:21:23.300Z,52.88
2018-09-10T10:23:57.904Z,54.02
2018-09-10T10:26:30.461Z,54.06
2018-09-10T10:29:02.996Z,53.64
2018-09-10T10:31:36.649Z,52.93
2018-09-10T10:34:13.886Z,51.13
2018-09-10T10:36:46.488Z,50.80
2018-09-10T10:39:21.373Z,50.08
2018-09-10T10:41:56.094Z,48.48
2018-09-10T10:44:28.689Z,47.29
2018-09-10T10:47:05.358Z,47.99
2018-09-10T10:49:41.628Z,47.80
2018-09-10T10:52:15.482Z,47.91
2018-09-10T10:54:48.816Z,47.72
2018-09-10T10:57:22.529Z,47.44
2018-09-10T10:59:58.072Z,48.25
2018-09-10T11:02:32.573Z,48.53
2018-09-10T11:05:06.481Z,49.66
2018-09-10T11:07:39.144Z,50.64
2018-09-10T11:10:13.908Z,51.21
2018-09-10T11:12:47.431Z,50.82
2018-09-10T11:15:20.164Z,50.09
2018-09-10T11:17:53.972Z,49.68
2018-09-10T11:20:26.864Z,48.40
2018-09-10T11:23:00.514Z,47.75
2018-09-10T11:25:39.725Z,47.56
2018-09-10T11:28:13.294Z,47.73
2018-09-10T11:30:48.082Z,48.08
2018-09-10T11:33:24.692Z,47.42
2018-09-10T11:36:03.355Z,48.50
2018-09-10T11:38:37.312Z,47.98
2018-09-10T11:41:11.837Z,48.72
2018-09-10T11:43:46.135Z,48.69
2018-09-10T11:46:19.521Z,48.81
2018-09-10T11:49:01.492Z,48.89
2018-09-10T11:51:34.516Z,48.84
2018-09-10T11:54:08.440Z,48.15
2018-09-10T11:56:42.905Z,47.58
2018-09-10T11:59:16.385Z,47.54
2018-09-10T12:01:51.002Z,47.53
2018-09-10T12:04:25.250Z,47.44
2018-09-10T12:06:57.765Z,47.82
2018-09-10T12:09:32.720Z,47.81
2018-09-10T12:12:07.280Z,46.31
2018-09-10T12:14:43.413Z,46.81
2018-09-10T12:17:18.100Z,47.24
2018-09-10T12:19:51.496Z,46.86
2018-09-10T12:22:26.678Z,46.42
2018-09-10T12:25:00.800Z,46.36
2018-09-10T12:27:36.257Z,47.18
2018-09-10T12:30:12.356Z,47.56
2018-09-10T12:32:44.988Z,47.77
2018-09-10T12:35:19.866Z,48.08
2018-09-10T12:37:54.532Z,47.39
2018-09-10T12:40:28.026Z,47.40
2018-09-10T12:43:01.512Z,47.97
2018-09-10T12:45:37.693Z,48.41
2018-09-10T12:48:12.627Z,48.63
2018-09-10T12:50:45.663Z,48.71
2018-09-10T12:53:20.429Z,49.08
2018-09-10T12:55:53.020Z,49.19
2018-09-10T12:58:26.828Z,48.92
2018-09-10T13:01:00.071Z,48.69
2018-09-10T13:03:33.548Z,48.21
2018-09-10T13:06:06.429Z,48.13
2018-09-10T13:08:40.561Z,48.01
2018-09-10T13:11:15.460Z,48.19
2018-09-10T13:13:49.054Z,47.86
2018-09-10T13:16:22.319Z,47.68
2018-09-10T13:18:54.868Z,47.50
2018-09-10T13:21:28.844Z,47.82
2018-09-10T13:24:02.225Z,47.57
2018-09-10T13:26:34.963Z,47.41
2018-09-10T13:29:08.190Z,46.16
2018-09-10T13:31:41.036Z,46.11
2018-09-10T13:34:14.712Z,46.66
2018-09-10T13:36:50.372Z,46.31
2018-09-10T13:39:23.575Z,46.32
2018-09-10T13:41:56.324Z,47.21
2018-09-10T13:44:32.203Z,47.44
2018-09-10T13:47:06.144Z,47.48
2018-09-10T13:49:40.647Z,47.74
2018-09-10T13:52:15.336Z,47.71
2018-09-10T13:54:49.324Z,47.29
2018-09-10T13:57:22.356Z,47.67
2018-09-10T13:59:58.968Z,48.03
2018-09-10T14:02:41.376Z,48.87
2018-09-10T14:05:19.742Z,49.05
2018-09-10T14:07:54.364Z,49.12
2018-09-10T14:10:27.380Z,49.13
2018-09-10T14:13:01.123Z,49.01
2018-09-10T14:15:34.181Z,49.38
2018-09-10T14:18:07.409Z,49.79
2018-09-10T14:20:47.652Z,50.09
2018-09-10T14:23:22.985Z,50.17
2018-09-10T14:25:55.806Z,50.01
2018-09-10T14:28:29.679Z,50.29
2018-09-10T14:31:02.309Z,50.27
2018-09-10T14:33:35.768Z,50.37
2018-09-10T14:36:11.445Z,50.68
2018-09-10T14:38:46.796Z,50.60
2018-09-10T14:41:20.424Z,50.27
2018-09-10T14:43:53.839Z,49.77
2018-09-10T14:46:29.465Z,49.48
2018-09-10T14:49:02.077Z,48.88
2018-09-10T14:51:35.204Z,49.08
2018-09-10T14:54:09.276Z,49.08
2018-09-10T14:56:43.447Z,49.01
2018-09-10T14:59:20.108Z,48.59
2018-09-10T15:01:53.941Z,49.03
2018-09-10T15:04:29.229Z,48.92
2018-09-10T15:07:02.035Z,48.09
2018-09-10T15:09:37.778Z,47.97
2018-09-10T15:12:10.713Z,47.81
2018-09-10T15:14:43.273Z,48.35
2018-09-10T15:17:21.556Z,48.67
2018-09-10T15:19:54.724Z,48.86
2018-09-10T15:22:29.523Z,48.85
2018-09-10T15:25:04.832Z,49.06
2018-09-10T15:27:41.843Z,49.28
2018-09-10T15:30:17.115Z,49.52
2018-09-10T15:32:51.500Z,49.61
2018-09-10T15:35:24.314Z,49.96
2018-09-10T15:37:58.849Z,49.94
2018-09-10T15:40:34.519Z,49.82
2018-09-10T15:43:07.137Z,50.21
2018-09-10T15:45:41.685Z,50.24
2018-09-10T15:48:16.473Z,50.43
2018-09-10T15:50:49.393Z,50.76
2018-09-10T15:53:23.540Z,51.24
2018-09-10T15:55:57.684Z,51.30
2018-09-10T15:58:30.844Z,51.61
2018-09-10T16:01:05.816Z,51.73
2018-09-10T16:03:39.497Z,51.97
2018-09-10T16:06:12.074Z,52.13
2018-09-10T16:08:47.082Z,52.20
2018-09-10T16:11:19.727Z,52.25
2018-09-10T16:13:52.779Z,52.34
2018-09-10T16:16:29.296Z,52.76
2018-09-10T16:19:03.336Z,52.93
2018-09-10T16:21:38.220Z,52.87
2018-09-10T16:24:11.881Z,52.67
2018-09-10T16:26:44.580Z,52.79
2018-09-10T16:29:20.072Z,53.03
2018-09-10T16:32:01.736Z,53.37
2018-09-10T16:34:35.298Z,53.45
2018-09-10T16:37:10.368Z,53.50
2018-09-10T16:39:43.785Z,54.20
2018-09-10T16:42:16.822Z,54.35
2018-09-10T16:44:50.852Z,54.61
2018-09-10T16:47:26.648Z,54.71
2018-09-10T16:50:00.641Z,54.77
2018-09-10T16:52:35.536Z,54.86
2018-09-10T16:55:09.886Z,54.75
2018-09-10T16:57:44.239Z,54.88
2018-09-10T17:00:17.625Z,54.67
2018-09-10T17:02:54.078Z,54.73
2018-09-10T17:05:28.103Z,55.04
2018-09-10T17:08:02.441Z,55.46
2018-09-10T17:10:36.074Z,55.63
2018-09-10T17:13:08.630Z,55.63
2018-09-10T17:15:42.409Z,55.78
2018-09-10T17:18:15.574Z,56.04
2018-09-10T17:20:50.995Z,56.57
2018-09-10T17:23:23.612Z,57.09
2018-09-10T17:25:58.966Z,57.65
2018-09-10T17:28:35.024Z,59.91
2018-09-10T17:31:07.756Z,59.91
2018-09-10T17:33:40.345Z,60.29
2018-09-10T17:36:16.286Z,60.82
2018-09-10T17:38:49.033Z,61.20
2018-09-10T17:41:24.514Z,61.60
2018-09-10T17:44:00.578Z,62.10
2018-09-10T17:46:36.619Z,62.73
2018-09-10T17:49:10.649Z,64.50
2018-09-10T17:51:45.440Z,64.49
2018-09-10T17:54:20.173Z,64.85
2018-09-10T17:56:53.407Z,65.06
2018-09-10T17:59:29.361Z,64.91
2018-09-10T18:02:04.858Z,65.03
2018-09-10T18:04:37.645Z,65.48
2018-09-10T18:07:10.355Z,65.73
2018-09-10T18:09:43.756Z,66.04
2018-09-10T18:12:18.665Z,66.48
2018-09-10T18:14:51.676Z,67.47
2018-09-10T18:17:33.780Z,68.19
2018-09-10T18:20:17.614Z,68.72
2018-09-10T18:22:54.532Z,69.96
2018-09-10T18:25:30.936Z,70.23
2018-09-10T18:28:07.392Z,70.04
2018-09-10T18:30:42.560Z,70.24
2018-09-10T18:33:20.267Z,70.58
2018-09-10T18:35:55.955Z,70.55
2018-09-10T18:38:29.543Z,71.08
2018-09-10T18:41:04.371Z,70.70
2018-09-10T18:43:40.352Z,70.61
2018-09-10T18:46:15.518Z,70.65
2018-09-10T18:48:51.679Z,70.89
2018-09-10T18:51:27.901Z,70.98
2018-09-10T18:54:02.477Z,71.08
2018-09-10T18:56:38.671Z,71.21
2018-09-10T18:59:14.716Z,71.67
2018-09-10T19:01:49.507Z,72.54
2018-09-10T19:04:31.765Z,73.04
2018-09-10T19:07:10.670Z,73.81
2018-09-10T19:09:43.515Z,74.44
2018-09-10T19:12:17.357Z,74.37
2018-09-10T19:14:51.307Z,74.03
2018-09-10T19:17:24.565Z,73.68
2018-09-10T19:19:58.633Z,72.97
2018-09-10T19:22:39.458Z,72.11
2018-09-10T19:25:15.696Z,71.54
2018-09-10T19:27:50.406Z,71.18
2018-09-10T19:30:23.136Z,71.01
2018-09-10T19:33:02.047Z,70.85
2018-09-10T19:35:37.029Z,70.78
2018-09-10T19:38:19.533Z,70.86
2018-09-10T19:40:56.579Z,71.04
2018-09-10T19:43:33.899Z,71.00
2018-09-10T19:46:11.354Z,71.17
2018-09-10T19:48:45.669Z,71.06
2018-09-10T19:51:20.817Z,70.95
2018-09-10T19:53:59.148Z,70.96
2018-09-10T19:56:33.662Z,71.02
2018-09-10T19:59:07.794Z,71.26
2018-09-10T20:01:45.775Z,71.31
2018-09-10T20:04:20.823Z,71.35
2018-09-10T20:06:55.473Z,71.45
2018-09-10T20:09:33.797Z,71.65
2018-09-10T20:12:07.871Z,72.15
2018-09-10T20:14:45.018Z,72.56
2018-09-10T20:17:20.896Z,73.08
2018-09-10T20:19:59.588Z,73.78
2018-09-10T20:22:33.624Z,73.74
2018-09-10T20:25:09.487Z,73.63
2018-09-10T20:27:42.157Z,73.42
2018-09-10T20:30:17.779Z,73.09
2018-09-10T20:32:50.353Z,72.89
2018-09-10T20:35:25.657Z,72.50
2018-09-10T20:38:02.415Z,72.11
2018-09-10T20:40:35.975Z,71.54
2018-09-10T20:43:09.449Z,71.35
2018-09-10T20:45:43.604Z,70.98
2018-09-10T20:48:17.042Z,70.73
2018-09-10T20:50:54.462Z,70.46
2018-09-10T20:53:36.805Z,70.28
2018-09-10T20:56:10.778Z,70.61
2018-09-10T20:58:48.383Z,71.01
2018-09-10T21:01:25.560Z,71.51
2018-09-10T21:04:00.468Z,71.62
2018-09-10T21:06:35.725Z,71.54
2018-09-10T21:09:10.415Z,71.37
2018-09-10T21:11:43.016Z,71.23
2018-09-10T21:14:15.826Z,71.18
2018-09-10T21:16:50.601Z,71.24
2018-09-10T21:19:24.184Z,71.44
2018-09-10T21:21:57.324Z,71.49
2018-09-10T21:24:32.816Z,71.50
2018-09-10T21:27:06.147Z,71.76
2018-09-10T21:29:46.404Z,71.83
2018-09-10T21:32:23.504Z,72.01
2018-09-10T21:34:58.612Z,72.18
2018-09-10T21:37:34.000Z,72.41
2018-09-10T21:40:08.691Z,72.61
2018-09-10T21:42:42.297Z,72.94
2018-09-10T21:45:17.341Z,73.11
2018-09-10T21:47:49.923Z,73.38
2018-09-10T21:50:22.864Z,73.64
2018-09-10T21:52:56.046Z,73.92
2018-09-10T21:55:30.630Z,74.52
2018-09-10T21:58:03.269Z,75.09
2018-09-10T22:00:52.950Z,76.11
2018-09-10T22:03:27.356Z,76.28
2018-09-10T22:06:01.564Z,76.49
2018-09-10T22:08:35.639Z,76.98
2018-09-10T22:11:09.124Z,77.14
2018-09-10T22:13:42.291Z,77.35
2018-09-10T22:16:15.714Z,77.48
2018-09-10T22:18:48.321Z,77.98
2018-09-10T22:21:21.303Z,77.89
2018-09-10T22:23:55.073Z,77.63
2018-09-10T22:26:27.655Z,77.49
2018-09-10T22:29:02.009Z,77.43
2018-09-10T22:31:37.351Z,77.36
2018-09-10T22:34:14.073Z,77.30
2018-09-10T22:36:49.053Z,77.26
2018-09-10T22:39:24.889Z,77.14
2018-09-10T22:41:57.515Z,76.92
2018-09-10T22:44:31.049Z,76.75
2018-09-10T22:47:04.242Z,76.68
2018-09-10T22:49:38.029Z,76.66
2018-09-10T22:52:10.611Z,76.73
2018-09-10T22:54:43.608Z,76.84
2018-09-10T22:57:16.416Z,76.87
2018-09-10T22:59:50.185Z,77.06
2018-09-10T23:02:24.385Z,77.33
2018-09-10T23:05:00.720Z,77.39
2018-09-10T23:07:33.327Z,77.79
2018-09-10T23:10:08.796Z,78.32
2018-09-10T23:12:43.485Z,78.83
2018-09-10T23:15:20.240Z,79.26
2018-09-10T23:17:56.074Z,79.64
2018-09-10T23:20:28.605Z,80.04
2018-09-10T23:23:04.064Z,80.28
2018-09-10T23:25:37.550Z,80.58
2018-09-10T23:28:10.069Z,80.70
2018-09-10T23:30:44.456Z,81.05
2018-09-10T23:33:17.052Z,81.27
2018-09-10T23:35:50.537Z,81.49
2018-09-10T23:38:24.046Z,81.61
2018-09-10T23:40:57.068Z,81.68
2018-09-10T23:43:31.104Z,81.82
2018-09-10T23:46:04.148Z,81.82
2018-09-10T23:48:37.059Z,81.74
2018-09-10T23:51:09.569Z,81.89
2018-09-10T23:53:42.529Z,82.03
2018-09-10T23:56:15.109Z,81.99
2018-09-10T23:58:47.746Z,82.38
